Terminal Aerodrome Forecast
Issued by NWS

Home | Current Version | Previous Version | Text Only | Print | Product List | Glossary On
Versions: 1 2 3 4 5 6 7 8 9 10 11 12 13 14 15
893
FTUS45 KRIW 280129 AAA
TAFRKS
TAF AMD
KRKS 280129Z 2801/2824 34009KT P6SM -RA SCT003 BKN010
      TEMPO 2803/2806 5SM -RA BKN003
     FM280900 02015G25KT 3SM -SN SCT008 OVC015
     FM281800 02020G30KT 5SM -SN SCT015 OVC030=

USA.gov is the U.S. government's official web portal to all federal, state and local government web resources and services.